Hauptseite
METAR-TAF:

METAR-TAF

Flughäfen :

St Athan, Wales

Breite: 51-24N, Länge: 003-26W, Höhe: 50 m

Beobachtung

Neuester Wetterbericht von vor 21 Minuten, um 05:50 UTC
Wind 7 kt aus West/Nordwest
Temperatur 1°C
Luftfeuchtigkeit 93%
Luftdruck 1000 hPa
Sichtweite 10 km oder mehr

METAR: EGDX 230550Z AUTO 29007KT 9999 FEW250/// 01/M00 Q1000

Zeit: 06:11 (06:11 UTC)

Prognose

Neuester Wetterbericht von vor 16 Stunden und 45 Minuten, um 13:26 UTC
Gültige Prognose vom 22 um 15 UTC bis 22 um 18 UTC
Wind 13 kt aus West/Nordwest
Sichtweite 10 km oder mehr
Aufgelockert bewölkt in der Höhe von 2500 ft
Wahrscheinlichkeit 30% :
Zeitweise
vom 22 um 15 UTC bis 22 um 18 UTC
Wind 15 kt aus West/Nordwest, Böen bis zu 25 kt
Sichtweite: 5000 m
Durchbrochene Bewölkung in der Höhe von 1500 ft
Regenschauer, Schnee

TAF: EGDX 221326Z 2215/2218 29013KT 9999 SCT025 PROB30 TEMPO 2215/2218 29015G25KT 5000 -SHRASN BKN015

Wetterbeobachtungen und Prognosen von mehr als 4000 Flughäfen (METAR und TAF Bericht).

Die verfügbaren Stationen werden durch gelbe und rote Markierungen auf der Karte dargestellt.

Führen Sie die Maus auf sie, um den Namen der Station zu sehen.

Darauf klicken, um die Beobachtung von Wetterbeobachtungen und Prognosen zu sehen.

Um die Karte zu ändern : klicken Sie auf den grünen Tasten mit einem schwarzen Kreuz Zum Vergrößern, auf den grünen Button mit einem Gedankenstrich zu verkleinern, oder auf die grünen Pfeile für benachbarte Karten.


METAR-TAF: